createdAt,value
2019-06-20T00:00:52.185Z,0.78
2019-06-20T00:03:21.526Z,0.70
2019-06-20T00:05:50.536Z,0.50
2019-06-20T00:08:19.465Z,0.80
2019-06-20T00:10:48.745Z,0.78
2019-06-20T00:13:17.707Z,0.60
2019-06-20T00:15:46.679Z,0.62
2019-06-20T00:18:15.592Z,0.40
2019-06-20T00:20:44.513Z,0.70
2019-06-20T00:23:13.479Z,0.65
2019-06-20T00:25:43.185Z,0.40
2019-06-20T00:28:12.180Z,0.68
2019-06-20T00:30:41.690Z,0.30
2019-06-20T00:33:10.613Z,0.70
2019-06-20T00:35:39.521Z,0.55
2019-06-20T00:38:08.525Z,0.60
2019-06-20T00:40:37.470Z,0.40
2019-06-20T00:43:16.869Z,0.72
2019-06-20T00:45:37.054Z,0.70
2019-06-20T00:48:06.040Z,0.57
2019-06-20T00:50:34.967Z,0.45
2019-06-20T00:53:03.926Z,0.50
2019-06-20T00:55:32.830Z,0.60
2019-06-20T00:58:01.787Z,0.50
2019-06-20T01:00:30.814Z,0.50
2019-06-20T01:02:59.738Z,0.55
2019-06-20T01:05:28.633Z,0.40
2019-06-20T01:07:57.627Z,0.40
2019-06-20T01:10:26.639Z,0.60
2019-06-20T01:12:55.566Z,0.50
2019-06-20T01:15:24.507Z,0.30
2019-06-20T01:17:53.487Z,0.50
2019-06-20T01:20:22.965Z,0.42
2019-06-20T01:22:51.900Z,0.40
2019-06-20T01:25:35.390Z,0.68
2019-06-20T01:28:04.489Z,0.42
2019-06-20T01:30:33.389Z,0.50
2019-06-20T01:33:02.401Z,0.60
2019-06-20T01:35:31.305Z,0.70
2019-06-20T01:38:00.262Z,0.50
2019-06-20T01:40:29.243Z,1.10
2019-06-20T01:42:58.143Z,0.60
2019-06-20T01:45:27.041Z,0.55
2019-06-20T01:47:56.011Z,0.47
2019-06-20T01:50:24.914Z,0.50
2019-06-20T01:52:53.815Z,0.30
2019-06-20T01:55:22.783Z,0.50
2019-06-20T01:57:51.695Z,0.40
2019-06-20T02:00:46.188Z,0.50
2019-06-20T02:03:15.794Z,0.50
2019-06-20T02:05:45.102Z,0.60
2019-06-20T02:08:15.348Z,0.68
2019-06-20T02:10:44.343Z,0.68
2019-06-20T02:13:13.301Z,0.53
2019-06-20T02:15:42.370Z,0.50
2019-06-20T02:18:11.391Z,0.60
2019-06-20T02:20:49.396Z,0.60
2019-06-20T02:23:18.438Z,0.68
2019-06-20T02:25:47.495Z,0.62
2019-06-20T02:28:16.733Z,0.37
2019-06-20T02:30:45.630Z,0.65
2019-06-20T02:33:14.541Z,0.68
2019-06-20T02:35:43.608Z,0.75
2019-06-20T02:38:12.513Z,0.70
2019-06-20T02:40:41.522Z,0.53
2019-06-20T02:43:10.476Z,0.62
2019-06-20T02:45:39.541Z,0.82
2019-06-20T02:48:08.519Z,0.80
2019-06-20T02:50:37.595Z,1.20
2019-06-20T02:53:06.511Z,1.10
2019-06-20T02:55:35.472Z,1.10
2019-06-20T02:58:04.467Z,0.95
2019-06-20T03:00:51.413Z,1.00
2019-06-20T03:03:20.477Z,0.95
2019-06-20T03:05:49.392Z,1.00
2019-06-20T03:08:18.311Z,1.00
2019-06-20T03:10:47.318Z,1.10
2019-06-20T03:13:16.266Z,1.20
2019-06-20T03:15:45.213Z,1.47
2019-06-20T03:18:14.151Z,1.20
2019-06-20T03:20:43.076Z,1.20
2019-06-20T03:23:12.020Z,1.02
2019-06-20T03:25:41.087Z,1.00
2019-06-20T03:28:10.009Z,1.07
2019-06-20T03:30:38.910Z,1.10
2019-06-20T03:33:07.857Z,1.20
2019-06-20T03:35:36.806Z,1.00
2019-06-20T03:38:06.817Z,1.37
2019-06-20T03:40:35.794Z,0.90
2019-06-20T03:43:04.807Z,1.20
2019-06-20T03:45:34.578Z,1.30
2019-06-20T03:48:03.647Z,0.90
2019-06-20T03:50:32.548Z,1.00
2019-06-20T03:53:04.219Z,1.20
2019-06-20T03:55:33.852Z,1.17
2019-06-20T03:58:02.978Z,0.72
2019-06-20T04:00:34.263Z,1.10
2019-06-20T04:03:03.490Z,0.98
2019-06-20T04:05:32.412Z,0.93
2019-06-20T04:08:01.354Z,0.90
2019-06-20T04:10:30.271Z,1.10
2019-06-20T04:13:00.190Z,1.42
2019-06-20T04:15:29.137Z,1.35
2019-06-20T04:17:58.053Z,0.75
2019-06-20T04:20:26.962Z,0.95
2019-06-20T04:22:55.923Z,0.90
2019-06-20T04:25:24.830Z,0.88
2019-06-20T04:27:53.765Z,0.65
2019-06-20T04:30:22.777Z,0.80
2019-06-20T04:32:51.702Z,0.72
2019-06-20T04:35:20.622Z,0.70
2019-06-20T04:37:49.681Z,0.93
2019-06-20T04:40:18.946Z,0.78
2019-06-20T04:42:47.920Z,0.80
2019-06-20T04:45:31.435Z,0.98
2019-06-20T04:47:49.298Z,0.80
2019-06-20T04:50:18.328Z,0.78
2019-06-20T04:52:47.318Z,0.80
2019-06-20T04:55:16.238Z,0.60
2019-06-20T04:57:45.269Z,0.55
2019-06-20T05:00:14.568Z,0.90
2019-06-20T05:02:43.527Z,0.50
2019-06-20T05:05:12.708Z,0.62
2019-06-20T05:07:41.676Z,0.47
2019-06-20T05:10:10.995Z,0.80
2019-06-20T05:12:39.904Z,0.72
2019-06-20T05:15:09.257Z,0.55
2019-06-20T05:17:38.184Z,0.50
2019-06-20T05:20:07.497Z,0.42
2019-06-20T05:22:36.545Z,0.68
2019-06-20T05:25:06.674Z,0.45
2019-06-20T05:27:35.710Z,0.53
2019-06-20T05:30:10.421Z,0.40
2019-06-20T05:32:39.336Z,0.50
2019-06-20T05:35:08.503Z,0.47
2019-06-20T05:37:37.624Z,0.40
2019-06-20T05:40:07.929Z,0.30
2019-06-20T05:42:36.842Z,0.30
2019-06-20T05:45:07.593Z,0.20
2019-06-20T05:47:36.555Z,0.20
2019-06-20T05:50:09.715Z,0.30
2019-06-20T05:52:38.632Z,0.50
2019-06-20T05:55:07.951Z,0.40
2019-06-20T05:57:36.924Z,0.50
2019-06-20T06:00:08.628Z,0.40
2019-06-20T06:02:37.766Z,0.35
2019-06-20T06:05:07.307Z,0.40
2019-06-20T06:07:36.278Z,0.40
2019-06-20T06:10:09.660Z,0.47
2019-06-20T06:12:38.714Z,0.40
2019-06-20T06:15:09.880Z,0.30
2019-06-20T06:17:38.876Z,0.42
2019-06-20T06:20:09.845Z,0.30
2019-06-20T06:22:39.043Z,0.50
2019-06-20T06:25:08.257Z,0.50
2019-06-20T06:27:37.210Z,0.42
2019-06-20T06:30:08.358Z,0.85
2019-06-20T06:32:40.298Z,0.50
2019-06-20T06:35:09.166Z,0.50
2019-06-20T06:37:38.117Z,0.70
2019-06-20T06:40:11.320Z,0.30
2019-06-20T06:42:41.202Z,0.37
2019-06-20T06:45:12.371Z,0.40
2019-06-20T06:47:41.340Z,0.90
2019-06-20T06:50:10.681Z,0.60
2019-06-20T06:52:39.637Z,0.70
2019-06-20T06:55:09.198Z,0.42
2019-06-20T06:57:38.773Z,0.50
2019-06-20T07:00:12.372Z,0.40
2019-06-20T07:02:41.348Z,0.30
2019-06-20T07:05:11.080Z,0.50
2019-06-20T07:07:41.482Z,0.30
2019-06-20T07:10:12.250Z,0.40
2019-06-20T07:12:43.608Z,0.42
2019-06-20T07:15:14.685Z,0.40
2019-06-20T07:17:44.369Z,0.37
2019-06-20T07:20:17.541Z,0.40
2019-06-20T07:22:46.706Z,0.53
2019-06-20T07:25:16.950Z,0.30
2019-06-20T07:27:45.955Z,0.23
2019-06-20T07:30:16.945Z,0.50
2019-06-20T07:32:46.344Z,0.70
2019-06-20T07:35:22.130Z,0.45
2019-06-20T07:37:51.108Z,0.85
2019-06-20T07:40:20.220Z,0.40
2019-06-20T07:42:49.142Z,0.40
2019-06-20T07:45:19.685Z,0.65
2019-06-20T07:47:48.636Z,0.60
2019-06-20T07:50:17.956Z,0.70
2019-06-20T07:53:00.895Z,0.80
2019-06-20T07:55:18.184Z,0.60
2019-06-20T07:57:47.098Z,0.68
2019-06-20T08:00:17.778Z,0.50
2019-06-20T08:02:46.718Z,0.75
2019-06-20T08:05:15.825Z,0.55
2019-06-20T08:07:44.734Z,0.50
2019-06-20T08:10:14.940Z,0.75
2019-06-20T08:12:43.897Z,0.50
2019-06-20T08:15:15.886Z,0.55
2019-06-20T08:17:44.758Z,0.40
2019-06-20T08:20:14.436Z,0.50
2019-06-20T08:22:43.349Z,0.50
2019-06-20T08:25:15.519Z,0.37
2019-06-20T08:27:51.570Z,0.60
2019-06-20T08:30:31.958Z,0.50
2019-06-20T08:33:03.597Z,0.40
2019-06-20T08:35:32.988Z,0.40
2019-06-20T08:38:03.627Z,0.40
2019-06-20T08:40:36.381Z,0.72
2019-06-20T08:43:06.259Z,0.70
2019-06-20T08:45:36.320Z,0.50
2019-06-20T08:48:05.430Z,0.50
2019-06-20T08:50:35.034Z,0.40
2019-06-20T08:53:05.717Z,0.37
2019-06-20T08:55:35.710Z,0.28
2019-06-20T08:58:05.645Z,0.80
2019-06-20T09:00:37.243Z,0.68
2019-06-20T09:03:06.952Z,0.40
2019-06-20T09:05:36.055Z,0.30
2019-06-20T09:08:07.032Z,0.72
2019-06-20T09:10:38.257Z,0.33
2019-06-20T09:13:07.819Z,0.90
2019-06-20T09:15:36.995Z,0.50
2019-06-20T09:18:06.235Z,0.57
2019-06-20T09:20:35.952Z,0.40
2019-06-20T09:23:05.618Z,0.40
2019-06-20T09:25:34.638Z,0.70
2019-06-20T09:28:03.637Z,0.50
2019-06-20T09:30:32.827Z,0.40
2019-06-20T09:33:01.697Z,0.50
2019-06-20T09:35:30.647Z,0.53
2019-06-20T09:37:59.685Z,0.30
2019-06-20T09:40:29.096Z,0.37
2019-06-20T09:42:58.773Z,0.30
2019-06-20T09:45:27.971Z,0.33
2019-06-20T09:47:58.141Z,0.37
2019-06-20T09:50:27.207Z,0.33
2019-06-20T09:52:56.664Z,0.30
2019-06-20T09:55:25.778Z,0.45
2019-06-20T09:57:55.907Z,0.40
2019-06-20T10:00:26.649Z,0.28
2019-06-20T10:02:56.301Z,0.40
2019-06-20T10:05:26.276Z,0.30
2019-06-20T10:07:56.472Z,0.42
2019-06-20T10:10:30.445Z,0.42
2019-06-20T10:12:59.623Z,0.45
2019-06-20T10:15:33.608Z,0.30
2019-06-20T10:18:02.565Z,0.20
2019-06-20T10:20:31.678Z,0.35
2019-06-20T10:23:13.629Z,0.30
2019-06-20T10:25:43.483Z,0.33
2019-06-20T10:28:12.484Z,0.40
2019-06-20T10:30:41.477Z,0.50
2019-06-20T10:33:10.554Z,0.30
2019-06-20T10:35:39.462Z,0.50
2019-06-20T10:38:08.404Z,0.33
2019-06-20T10:40:37.619Z,0.50
2019-06-20T10:43:06.567Z,0.75
2019-06-20T10:45:36.317Z,0.30
2019-06-20T10:48:05.543Z,0.37
2019-06-20T10:50:34.651Z,0.37
2019-06-20T10:53:03.550Z,0.30
2019-06-20T10:55:32.466Z,0.30
2019-06-20T10:58:01.428Z,0.45
2019-06-20T11:00:32.172Z,0.85
2019-06-20T11:03:01.088Z,2.10
2019-06-20T11:05:30.060Z,0.68
2019-06-20T11:07:58.977Z,0.45
2019-06-20T11:10:28.276Z,0.47
2019-06-20T11:12:57.219Z,0.45
2019-06-20T11:15:26.429Z,0.30
2019-06-20T11:17:56.747Z,0.40
2019-06-20T11:20:26.110Z,0.40
2019-06-20T11:22:55.012Z,0.15
2019-06-20T11:25:23.927Z,0.30
2019-06-20T11:27:52.911Z,0.35
2019-06-20T11:30:27.057Z,0.28
2019-06-20T11:32:56.051Z,0.30
2019-06-20T11:35:24.985Z,0.20
2019-06-20T11:37:53.881Z,0.20
2019-06-20T11:40:23.127Z,0.20
2019-06-20T11:42:52.057Z,0.40
2019-06-20T11:45:21.266Z,0.28
2019-06-20T11:47:50.286Z,0.20
2019-06-20T11:50:19.791Z,0.30
2019-06-20T11:52:48.709Z,0.35
2019-06-20T11:55:18.048Z,0.20
2019-06-20T11:57:48.254Z,0.25
2019-06-20T12:00:17.267Z,0.30
2019-06-20T12:02:46.338Z,0.23
2019-06-20T12:05:17.047Z,0.42
2019-06-20T12:07:47.635Z,0.20
2019-06-20T12:10:17.559Z,0.30
2019-06-20T12:12:46.894Z,0.40
2019-06-20T12:15:18.238Z,0.60
2019-06-20T12:17:49.120Z,0.33
2019-06-20T12:20:18.874Z,0.30
2019-06-20T12:22:50.549Z,0.15
2019-06-20T12:25:19.217Z,0.17
2019-06-20T12:27:49.616Z,0.13
2019-06-20T12:30:19.998Z,0.40
2019-06-20T12:32:49.330Z,0.30
2019-06-20T12:35:19.298Z,0.15
2019-06-20T12:37:49.754Z,0.20
2019-06-20T12:40:19.593Z,0.37
2019-06-20T12:42:49.349Z,0.20
2019-06-20T12:45:18.832Z,0.42
2019-06-20T12:47:47.826Z,0.17
2019-06-20T12:50:17.219Z,0.40
2019-06-20T12:52:47.554Z,0.37
2019-06-20T12:55:16.818Z,0.25
2019-06-20T12:57:46.318Z,0.08
2019-06-20T13:00:16.406Z,0.20
2019-06-20T13:02:45.611Z,0.20
2019-06-20T13:05:15.385Z,0.20
2019-06-20T13:07:44.438Z,0.28
2019-06-20T13:10:13.754Z,0.20
2019-06-20T13:12:43.074Z,0.13
2019-06-20T13:15:13.813Z,0.10
2019-06-20T13:17:43.610Z,0.30
2019-06-20T13:20:13.616Z,0.10
2019-06-20T13:22:42.909Z,0.20
2019-06-20T13:25:12.731Z,0.10
2019-06-20T13:27:43.271Z,0.30
2019-06-20T13:30:14.367Z,0.20
2019-06-20T13:32:43.911Z,0.20
2019-06-20T13:35:14.248Z,0.20
2019-06-20T13:37:43.494Z,0.25
2019-06-20T13:40:15.538Z,0.40
2019-06-20T13:42:45.959Z,0.13
2019-06-20T13:45:20.716Z,0.23
2019-06-20T13:47:50.088Z,0.30
2019-06-20T13:50:19.497Z,0.10
2019-06-20T13:52:49.726Z,0.10
2019-06-20T13:55:19.146Z,0.13
2019-06-20T13:57:49.234Z,0.05
2019-06-20T14:00:21.151Z,0.10
2019-06-20T14:02:51.468Z,0.10
2019-06-20T14:05:20.985Z,0.20
2019-06-20T14:07:53.576Z,0.10
2019-06-20T14:10:30.263Z,0.50
2019-06-20T14:12:59.221Z,0.15
2019-06-20T14:15:28.209Z,0.20
2019-06-20T14:17:57.133Z,0.20
2019-06-20T14:20:26.175Z,0.40
2019-06-20T14:22:56.547Z,0.13
2019-06-20T14:25:25.707Z,0.23
2019-06-20T14:27:54.678Z,0.30
2019-06-20T14:30:23.818Z,0.30
2019-06-20T14:32:54.039Z,0.28
2019-06-20T14:35:23.744Z,0.30
2019-06-20T14:37:52.721Z,0.47
2019-06-20T14:40:21.896Z,0.30
2019-06-20T14:42:52.206Z,0.23
2019-06-20T14:45:21.525Z,0.30
2019-06-20T14:47:52.269Z,0.30
2019-06-20T14:50:22.398Z,0.30
2019-06-20T14:52:53.989Z,0.30
2019-06-20T14:55:23.179Z,0.30
2019-06-20T14:57:52.471Z,0.30
2019-06-20T15:00:23.636Z,0.40
2019-06-20T15:02:58.208Z,0.23
2019-06-20T15:05:26.179Z,0.20
2019-06-20T15:07:55.883Z,1.07
2019-06-20T15:10:25.033Z,0.60
2019-06-20T15:12:55.655Z,0.28
2019-06-20T15:15:24.674Z,0.33
2019-06-20T15:17:55.687Z,0.10
2019-06-20T15:20:25.461Z,0.30
2019-06-20T15:22:54.737Z,0.25
2019-06-20T15:25:23.791Z,0.40
2019-06-20T15:27:53.881Z,0.30
2019-06-20T15:30:23.312Z,0.40
2019-06-20T15:33:01.943Z,0.40
2019-06-20T15:35:22.905Z,0.30
2019-06-20T15:37:53.639Z,0.30
2019-06-20T15:40:22.385Z,0.35
2019-06-20T15:42:53.004Z,0.28
2019-06-20T15:45:21.875Z,0.50
2019-06-20T15:47:50.895Z,0.30
2019-06-20T15:50:20.233Z,0.15
2019-06-20T15:52:49.243Z,0.40
2019-06-20T15:55:20.332Z,0.40
2019-06-20T15:57:49.347Z,0.30
2019-06-20T16:00:18.696Z,0.30
2019-06-20T16:02:48.622Z,0.30
2019-06-20T16:05:18.559Z,0.20
2019-06-20T16:07:47.497Z,0.20
2019-06-20T16:10:17.035Z,0.30
2019-06-20T16:12:45.990Z,0.28
2019-06-20T16:15:23.102Z,0.20
2019-06-20T16:18:04.231Z,0.30
2019-06-20T16:20:33.586Z,0.20
2019-06-20T16:23:07.145Z,0.70
2019-06-20T16:25:36.159Z,0.50
2019-06-20T16:28:06.114Z,0.45
2019-06-20T16:30:35.082Z,0.40
2019-06-20T16:33:03.999Z,0.40
2019-06-20T16:35:33.040Z,0.70
2019-06-20T16:38:01.963Z,0.60
2019-06-20T16:40:45.571Z,0.70
2019-06-20T16:43:14.895Z,0.85
2019-06-20T16:45:44.105Z,1.30
2019-06-20T16:48:13.059Z,0.68
2019-06-20T16:50:43.660Z,1.10
2019-06-20T16:53:12.704Z,0.80
2019-06-20T16:55:41.641Z,0.80
2019-06-20T16:58:10.654Z,0.95
2019-06-20T17:00:41.665Z,0.88
2019-06-20T17:03:12.110Z,1.10
2019-06-20T17:05:41.677Z,0.80
2019-06-20T17:08:11.479Z,0.60
2019-06-20T17:10:52.227Z,0.65
2019-06-20T17:13:25.472Z,1.02
2019-06-20T17:15:55.060Z,0.85
2019-06-20T17:18:24.012Z,0.98
2019-06-20T17:20:52.967Z,1.32
2019-06-20T17:23:21.889Z,1.12
2019-06-20T17:25:50.828Z,1.00
2019-06-20T17:28:31.881Z,1.20
2019-06-20T17:31:00.845Z,0.90
2019-06-20T17:33:29.899Z,0.50
2019-06-20T17:35:58.869Z,0.47
2019-06-20T17:38:27.783Z,0.40
2019-06-20T17:40:56.704Z,0.78
2019-06-20T17:43:25.674Z,0.80
2019-06-20T17:45:54.613Z,0.68
2019-06-20T17:48:23.574Z,0.80
2019-06-20T17:50:52.510Z,0.60
2019-06-20T17:53:21.465Z,0.60
2019-06-20T17:55:50.371Z,0.40
2019-06-20T17:58:19.323Z,0.93
2019-06-20T18:00:48.283Z,1.20
2019-06-20T18:03:17.228Z,1.30
2019-06-20T18:05:46.236Z,0.95
2019-06-20T18:08:17.492Z,1.42
2019-06-20T18:10:46.541Z,1.22
2019-06-20T18:13:15.466Z,0.62
2019-06-20T18:15:44.403Z,0.60
2019-06-20T18:18:13.361Z,0.30
2019-06-20T18:20:42.288Z,0.80
2019-06-20T18:23:11.217Z,0.80
2019-06-20T18:25:40.175Z,0.95
2019-06-20T18:28:09.077Z,0.70
2019-06-20T18:30:43.191Z,0.68
2019-06-20T18:33:12.392Z,0.90
2019-06-20T18:35:41.319Z,0.78
2019-06-20T18:38:10.470Z,0.70
2019-06-20T18:40:39.401Z,1.00
2019-06-20T18:43:08.312Z,0.60
2019-06-20T18:45:37.286Z,0.45
2019-06-20T18:48:06.329Z,0.65
2019-06-20T18:50:35.272Z,0.50
2019-06-20T18:53:04.235Z,0.70
2019-06-20T18:55:34.143Z,0.60
2019-06-20T18:58:03.060Z,0.80
2019-06-20T19:00:34.961Z,0.82
2019-06-20T19:03:02.776Z,0.90
2019-06-20T19:05:31.691Z,1.10
2019-06-20T19:08:00.656Z,0.62
2019-06-20T19:10:33.455Z,0.85
2019-06-20T19:13:01.235Z,0.98
2019-06-20T19:15:30.348Z,1.45
2019-06-20T19:17:59.991Z,1.27
2019-06-20T19:20:29.051Z,0.55
2019-06-20T19:22:59.775Z,0.80
2019-06-20T19:25:29.599Z,0.80
2019-06-20T19:27:58.761Z,0.60
2019-06-20T19:30:30.606Z,1.07
2019-06-20T19:32:59.735Z,0.80
2019-06-20T19:35:28.798Z,0.88
2019-06-20T19:37:57.882Z,1.20
2019-06-20T19:40:29.884Z,1.22
2019-06-20T19:42:59.064Z,0.93
2019-06-20T19:45:28.000Z,1.00
2019-06-20T19:47:57.103Z,0.95
2019-06-20T19:50:26.021Z,0.90
2019-06-20T19:52:55.004Z,0.60
2019-06-20T19:55:24.338Z,0.85
2019-06-20T19:57:53.440Z,0.60
2019-06-20T20:00:22.747Z,0.40
2019-06-20T20:02:53.477Z,0.60
2019-06-20T20:05:22.516Z,0.60
2019-06-20T20:07:51.584Z,0.93
2019-06-20T20:10:44.399Z,0.53
2019-06-20T20:13:15.458Z,0.55
2019-06-20T20:15:44.930Z,0.40
2019-06-20T20:18:15.477Z,0.50
2019-06-20T20:20:47.476Z,0.50
2019-06-20T20:23:16.770Z,0.50
2019-06-20T20:25:45.829Z,0.70
2019-06-20T20:28:14.755Z,0.42
2019-06-20T20:30:43.725Z,0.70
2019-06-20T20:33:12.748Z,0.60
2019-06-20T20:35:41.667Z,0.50
2019-06-20T20:38:10.649Z,0.50
2019-06-20T20:40:39.586Z,0.40
2019-06-20T20:43:08.691Z,0.50
2019-06-20T20:45:37.761Z,0.50
2019-06-20T20:48:06.700Z,0.53
2019-06-20T20:50:35.754Z,0.47
2019-06-20T20:53:04.945Z,0.60
2019-06-20T20:55:33.884Z,1.15
2019-06-20T20:58:02.857Z,0.40
2019-06-20T21:00:37.744Z,0.35
2019-06-20T21:03:07.425Z,0.57
2019-06-20T21:05:50.690Z,0.60
2019-06-20T21:08:07.215Z,0.40
2019-06-20T21:10:36.290Z,0.90
2019-06-20T21:13:05.334Z,0.85
2019-06-20T21:15:34.311Z,0.50
2019-06-20T21:18:03.304Z,0.90
2019-06-20T21:20:32.313Z,0.53
2019-06-20T21:23:01.502Z,1.30
2019-06-20T21:25:32.350Z,1.10
2019-06-20T21:28:01.149Z,0.57
2019-06-20T21:30:31.666Z,1.60
2019-06-20T21:33:00.707Z,1.15
2019-06-20T21:35:29.775Z,1.00
2019-06-20T21:37:59.043Z,0.70
2019-06-20T21:40:27.942Z,1.10
2019-06-20T21:42:56.900Z,0.72
2019-06-20T21:45:26.018Z,0.68
2019-06-20T21:47:54.985Z,0.68
2019-06-20T21:50:23.896Z,0.72
2019-06-20T21:52:53.003Z,0.60
2019-06-20T21:55:21.942Z,0.90
2019-06-20T21:57:51.877Z,0.53
2019-06-20T22:00:40.339Z,0.60
2019-06-20T22:08:24.285Z,0.75
2019-06-20T22:10:53.249Z,0.60
2019-06-20T22:13:22.210Z,0.78
2019-06-20T22:15:51.229Z,0.60
2019-06-20T22:18:20.198Z,0.93
2019-06-20T22:20:49.249Z,0.57
2019-06-20T22:23:18.159Z,0.80
2019-06-20T22:25:47.124Z,0.90
2019-06-20T22:28:16.229Z,0.78
2019-06-20T22:30:48.206Z,0.60
2019-06-20T22:33:17.148Z,0.62
2019-06-20T22:35:46.340Z,0.50
2019-06-20T22:38:15.371Z,0.60
2019-06-20T22:40:44.816Z,0.60
2019-06-20T22:43:14.859Z,0.70
2019-06-20T22:45:43.775Z,0.65
2019-06-20T22:48:12.756Z,0.60
2019-06-20T22:50:42.838Z,0.60
2019-06-20T22:53:11.775Z,0.55
2019-06-20T22:55:40.746Z,0.70
2019-06-20T22:58:09.660Z,0.70
2019-06-20T23:00:38.753Z,0.60
2019-06-20T23:03:07.724Z,0.65
2019-06-20T23:05:36.685Z,0.60
2019-06-20T23:08:05.729Z,0.50
2019-06-20T23:10:34.734Z,0.45
2019-06-20T23:13:03.637Z,0.70
2019-06-20T23:15:32.571Z,0.70
2019-06-20T23:18:01.574Z,0.70
2019-06-20T23:20:30.634Z,0.68
2019-06-20T23:22:59.557Z,0.50
2019-06-20T23:25:28.566Z,0.68
2019-06-20T23:27:57.533Z,0.70
2019-06-20T23:30:26.804Z,0.88
2019-06-20T23:32:55.774Z,0.68
2019-06-20T23:35:24.675Z,0.80
2019-06-20T23:37:53.592Z,0.60
2019-06-20T23:40:23.139Z,0.68
2019-06-20T23:42:52.079Z,0.50
2019-06-20T23:45:21.283Z,0.40
2019-06-20T23:47:50.245Z,0.40
2019-06-20T23:50:19.280Z,0.45
2019-06-20T23:52:57.633Z,0.42
2019-06-20T23:55:26.573Z,0.45
2019-06-20T23:57:55.548Z,0.50
